createdAt,value
2022-08-05T00:00:01.388Z,19.9
2022-08-05T00:01:20.457Z,19.9
2022-08-05T00:02:07.491Z,19.9
2022-08-05T00:03:02.035Z,19.8
2022-08-05T00:04:01.590Z,20
2022-08-05T00:05:05.764Z,20
2022-08-05T00:06:06.724Z,19.9
2022-08-05T00:07:01.534Z,19.9
2022-08-05T00:08:02.346Z,19.9
2022-08-05T00:09:02.058Z,19.9
2022-08-05T00:10:01.480Z,19.8
2022-08-05T00:11:02.072Z,19.8
2022-08-05T00:12:01.644Z,19.9
2022-08-05T00:13:01.813Z,19.8
2022-08-05T00:14:02.151Z,19.8
2022-08-05T00:15:14.095Z,19.8
2022-08-05T00:16:02.094Z,19.8
2022-08-05T00:17:02.194Z,19.8
2022-08-05T00:18:02.596Z,19.7
2022-08-05T00:19:01.248Z,19.7
2022-08-05T00:20:03.080Z,19.8
2022-08-05T00:21:01.812Z,19.7
2022-08-05T00:22:01.392Z,19.7
2022-08-05T00:23:02.744Z,19.8
2022-08-05T00:24:05.142Z,19.7
2022-08-05T00:25:02.062Z,19.8
2022-08-05T00:26:01.598Z,19.7
2022-08-05T00:27:01.295Z,19.7
2022-08-05T00:28:01.831Z,19.7
2022-08-05T00:29:01.515Z,19.7
2022-08-05T00:30:03.138Z,19.7
2022-08-05T00:31:02.725Z,19.7
2022-08-05T00:32:10.849Z,19.7
2022-08-05T00:33:01.330Z,19.6
2022-08-05T00:34:42.995Z,19.6
2022-08-05T00:35:04.904Z,19.5
2022-08-05T00:36:15.342Z,19.5
2022-08-05T00:37:09.314Z,19.4
2022-08-05T00:38:02.099Z,19.5
2022-08-05T00:39:01.574Z,19.5
2022-08-05T00:40:01.212Z,19.4
2022-08-05T00:41:01.407Z,19.3
2022-08-05T00:42:02.000Z,19.2
2022-08-05T00:43:01.423Z,19.3
2022-08-05T00:44:01.221Z,19.3
2022-08-05T00:45:01.348Z,19.3
2022-08-05T00:46:01.922Z,19.3
2022-08-05T00:47:01.794Z,19.4
2022-08-05T00:48:04.978Z,19.3
2022-08-05T00:49:01.278Z,19.3
2022-08-05T00:50:01.215Z,19.4
2022-08-05T00:51:08.765Z,19.2
2022-08-05T00:52:01.342Z,19.3
2022-08-05T00:53:01.642Z,19.2
2022-08-05T00:54:02.891Z,19.1
2022-08-05T00:55:01.739Z,19.2
2022-08-05T00:56:01.332Z,19.2
2022-08-05T00:57:01.897Z,19.2
2022-08-05T00:58:01.469Z,19.2
2022-08-05T00:59:02.004Z,19.2
2022-08-05T01:00:01.557Z,19.1
2022-08-05T01:01:01.366Z,19.1
2022-08-05T01:02:01.846Z,19.1
2022-08-05T01:03:01.505Z,19.1
2022-08-05T01:04:02.170Z,19.1
2022-08-05T01:05:01.749Z,19.1
2022-08-05T01:06:01.310Z,19.1
2022-08-05T01:07:01.173Z,19.1
2022-08-05T01:08:30.516Z,19.1
2022-08-05T01:09:01.253Z,19.1
2022-08-05T01:10:01.696Z,19
2022-08-05T01:11:01.297Z,19
2022-08-05T01:12:09.416Z,19
2022-08-05T01:13:05.491Z,19.1
2022-08-05T01:14:01.967Z,19
2022-08-05T01:15:03.976Z,18.9
2022-08-05T01:16:02.084Z,19
2022-08-05T01:17:01.683Z,19
2022-08-05T01:18:01.584Z,19
2022-08-05T01:19:01.164Z,19
2022-08-05T01:20:03.505Z,19
2022-08-05T01:21:01.232Z,19
2022-08-05T01:22:01.891Z,19
2022-08-05T01:23:05.853Z,19
2022-08-05T01:24:01.561Z,19.1
2022-08-05T01:25:02.101Z,19
2022-08-05T01:26:01.643Z,19.1
2022-08-05T01:27:12.216Z,19.1
2022-08-05T01:28:01.433Z,19.1
2022-08-05T01:29:05.276Z,19
2022-08-05T01:30:01.572Z,19.1
2022-08-05T01:31:01.157Z,19.1
2022-08-05T01:32:01.597Z,19.1
2022-08-05T01:33:01.200Z,19.1
2022-08-05T01:34:01.753Z,19.2
2022-08-05T01:35:01.395Z,19.2
2022-08-05T01:36:01.968Z,19.2
2022-08-05T01:37:01.551Z,19.2
2022-08-05T01:38:02.157Z,19.2
2022-08-05T01:39:02.023Z,19.2
2022-08-05T01:40:01.360Z,19.2
2022-08-05T01:41:02.047Z,19.2
2022-08-05T01:42:01.586Z,19.1
2022-08-05T01:43:01.187Z,19.2
2022-08-05T01:44:01.744Z,19.1
2022-08-05T01:45:02.180Z,19
2022-08-05T01:46:07.040Z,19.1
2022-08-05T01:47:01.513Z,19
2022-08-05T01:48:02.070Z,19.1
2022-08-05T01:49:02.156Z,19
2022-08-05T01:50:03.104Z,19
2022-08-05T01:51:12.252Z,19
2022-08-05T01:52:01.777Z,19
2022-08-05T01:53:01.318Z,18.9
2022-08-05T01:54:02.117Z,18.9
2022-08-05T01:55:01.491Z,18.9
2022-08-05T01:56:04.383Z,18.9
2022-08-05T01:58:08.471Z,18.9
2022-08-05T01:58:09.006Z,18.9
2022-08-05T01:59:01.675Z,18.9
2022-08-05T02:00:01.239Z,18.9
2022-08-05T02:01:01.817Z,18.9
2022-08-05T02:02:01.460Z,18.9
2022-08-05T02:03:03.610Z,18.8
2022-08-05T02:04:01.354Z,18.9
2022-08-05T02:05:03.046Z,18.9
2022-08-05T02:06:03.509Z,18.9
2022-08-05T02:07:03.451Z,18.9
2022-08-05T02:08:02.023Z,18.9
2022-08-05T02:09:01.379Z,19
2022-08-05T02:10:01.973Z,18.9
2022-08-05T02:11:01.555Z,18.9
2022-08-05T02:12:02.133Z,18.9
2022-08-05T02:13:01.763Z,19
2022-08-05T02:14:01.304Z,18.9
2022-08-05T02:15:02.934Z,18.9
2022-08-05T02:16:01.645Z,19
2022-08-05T02:17:01.274Z,19
2022-08-05T02:18:29.260Z,19
2022-08-05T02:19:01.320Z,18.9
2022-08-05T02:20:01.891Z,18.9
2022-08-05T02:21:01.481Z,18.9
2022-08-05T02:22:02.048Z,19
2022-08-05T02:23:01.643Z,18.9
2022-08-05T02:24:01.254Z,18.8
2022-08-05T02:25:01.627Z,18.8
2022-08-05T02:26:01.239Z,18.8
2022-08-05T02:27:10.333Z,18.8
2022-08-05T02:28:02.029Z,18.8
2022-08-05T02:29:01.567Z,18.8
2022-08-05T02:30:02.128Z,18.7
2022-08-05T02:31:01.278Z,18.7
2022-08-05T02:32:04.533Z,18.7
2022-08-05T02:33:01.366Z,18.7
2022-08-05T02:34:02.021Z,18.6
2022-08-05T02:35:02.069Z,18.7
2022-08-05T02:36:01.499Z,18.8
2022-08-05T02:37:01.497Z,18.8
2022-08-05T02:38:02.233Z,18.6
2022-08-05T02:39:02.232Z,18.7
2022-08-05T02:40:01.718Z,18.6
2022-08-05T02:41:01.513Z,18.6
2022-08-05T02:42:02.072Z,18.6
2022-08-05T02:43:01.538Z,18.5
2022-08-05T02:44:06.347Z,18.6
2022-08-05T02:45:01.664Z,18.6
2022-08-05T02:46:01.274Z,18.6
2022-08-05T02:47:01.898Z,18.6
2022-08-05T02:48:07.143Z,18.5
2022-08-05T02:49:02.020Z,18.6
2022-08-05T02:50:01.603Z,18.6
2022-08-05T02:51:01.187Z,18.6
2022-08-05T02:52:04.196Z,18.6
2022-08-05T02:53:01.335Z,18.6
2022-08-05T02:54:03.455Z,18.5
2022-08-05T02:55:01.687Z,18.5
2022-08-05T02:56:01.976Z,18.6
2022-08-05T02:57:01.883Z,18.5
2022-08-05T02:58:08.729Z,18.5
2022-08-05T02:59:02.030Z,18.4
2022-08-05T03:00:01.670Z,18.4
2022-08-05T03:01:01.767Z,18.4
2022-08-05T03:02:01.592Z,18.3
2022-08-05T03:03:01.230Z,18.3
2022-08-05T03:04:02.352Z,18.2
2022-08-05T03:05:02.155Z,18.2
2022-08-05T03:06:53.083Z,18.3
2022-08-05T03:07:02.079Z,18.2
2022-08-05T03:08:07.458Z,18.1
2022-08-05T03:09:01.847Z,18.1
2022-08-05T03:10:01.390Z,18.1
2022-08-05T03:11:41.256Z,18
2022-08-05T03:12:01.820Z,18
2022-08-05T03:14:02.575Z,18
2022-08-05T03:15:01.864Z,18
2022-08-05T03:16:02.127Z,17.9
2022-08-05T03:17:02.686Z,17.9
2022-08-05T03:18:02.075Z,17.9
2022-08-05T03:19:04.299Z,17.9
2022-08-05T03:20:01.390Z,17.9
2022-08-05T03:21:01.974Z,17.9
2022-08-05T03:22:01.791Z,17.9
2022-08-05T03:23:01.350Z,17.9
2022-08-05T03:24:02.407Z,17.9
2022-08-05T03:25:02.185Z,17.9
2022-08-05T03:26:04.079Z,17.8
2022-08-05T03:27:01.226Z,17.9
2022-08-05T03:28:01.817Z,17.8
2022-08-05T03:29:01.422Z,17.9
2022-08-05T03:30:07.986Z,17.9
2022-08-05T03:31:01.511Z,17.9
2022-08-05T03:32:01.235Z,17.9
2022-08-05T03:33:01.832Z,18
2022-08-05T03:34:01.468Z,17.9
2022-08-05T03:35:02.004Z,17.8
2022-08-05T03:36:01.546Z,17.8
2022-08-05T03:37:02.086Z,17.8
2022-08-05T03:38:01.667Z,17.8
2022-08-05T03:39:01.318Z,17.7
2022-08-05T03:40:03.884Z,17.8
2022-08-05T03:41:04.102Z,17.8
2022-08-05T03:42:01.926Z,17.8
2022-08-05T03:43:15.860Z,17.7
2022-08-05T03:44:10.086Z,17.7
2022-08-05T03:45:22.270Z,17.7
2022-08-05T03:46:01.250Z,17.8
2022-08-05T03:47:01.830Z,17.7
2022-08-05T03:48:01.192Z,17.7
2022-08-05T03:49:02.205Z,17.6
2022-08-05T03:50:01.618Z,17.6
2022-08-05T03:52:36.260Z,17.6
2022-08-05T03:52:36.317Z,17.6
2022-08-05T03:54:59.909Z,17.6
2022-08-05T03:55:07.291Z,17.6
2022-08-05T03:55:51.432Z,17.5
2022-08-05T03:56:10.232Z,17.6
2022-08-05T03:57:01.441Z,17.6
2022-08-05T03:58:01.992Z,17.5
2022-08-05T03:59:01.617Z,17.5
2022-08-05T04:00:01.568Z,17.6
2022-08-05T04:01:01.403Z,17.4
2022-08-05T04:02:01.898Z,17.4
2022-08-05T04:03:01.266Z,17.4
2022-08-05T04:04:05.414Z,17.4
2022-08-05T04:05:01.408Z,17.4
2022-08-05T04:06:01.844Z,17.3
2022-08-05T04:07:01.428Z,17.4
2022-08-05T04:08:01.988Z,17.4
2022-08-05T04:09:01.704Z,17.3
2022-08-05T04:10:01.743Z,17.4
2022-08-05T04:11:01.744Z,17.4
2022-08-05T04:12:01.323Z,17.4
2022-08-05T04:13:03.476Z,17.4
2022-08-05T04:14:01.465Z,17.4
2022-08-05T04:15:02.131Z,17.4
2022-08-05T04:16:03.484Z,17.3
2022-08-05T04:17:02.125Z,17.4
2022-08-05T04:18:01.701Z,17.4
2022-08-05T04:19:01.284Z,17.5
2022-08-05T04:20:02.556Z,17.5
2022-08-05T04:21:02.166Z,17.5
2022-08-05T04:22:05.902Z,17.5
2022-08-05T04:23:02.124Z,17.5
2022-08-05T04:24:06.083Z,17.6
2022-08-05T04:25:01.859Z,17.6
2022-08-05T04:26:01.560Z,17.5
2022-08-05T04:27:01.649Z,17.5
2022-08-05T04:28:05.551Z,17.4
2022-08-05T04:29:07.080Z,17.4
2022-08-05T04:30:03.682Z,17.5
2022-08-05T04:31:00.903Z,17.5
2022-08-05T04:32:00.825Z,17.6
2022-08-05T04:33:01.396Z,17.5
2022-08-05T04:34:19.553Z,17.5
2022-08-05T04:35:01.614Z,17.4
2022-08-05T04:36:10.787Z,17.5
2022-08-05T04:37:00.839Z,17.5
2022-08-05T04:38:06.693Z,17.5
2022-08-05T04:39:00.864Z,17.6
2022-08-05T04:40:01.457Z,17.5
2022-08-05T04:41:00.760Z,17.5
2022-08-05T04:42:01.847Z,17.6
2022-08-05T04:43:00.843Z,17.5
2022-08-05T04:44:00.781Z,17.6
2022-08-05T04:45:01.344Z,17.5
2022-08-05T04:46:01.432Z,17.5
2022-08-05T04:47:09.286Z,17.6
2022-08-05T04:48:01.131Z,17.6
2022-08-05T04:49:00.711Z,17.6
2022-08-05T04:50:03.137Z,17.5
2022-08-05T04:51:03.162Z,17.5
2022-08-05T04:52:00.962Z,17.6
2022-08-05T04:53:01.544Z,17.6
2022-08-05T04:54:01.302Z,17.5
2022-08-05T04:55:05.362Z,17.5
2022-08-05T04:56:15.788Z,17.5
2022-08-05T04:57:01.081Z,17.6
2022-08-05T04:58:01.194Z,17.6
2022-08-05T04:59:00.853Z,17.5
2022-08-05T05:00:01.393Z,17.6
2022-08-05T05:01:01.028Z,17.6
2022-08-05T05:02:08.490Z,17.5
2022-08-05T05:03:03.879Z,17.5
2022-08-05T05:04:01.661Z,17.5
2022-08-05T05:05:01.586Z,17.5
2022-08-05T05:06:35.639Z,17.5
2022-08-05T05:07:01.314Z,17.5
2022-08-05T05:08:01.911Z,17.5
2022-08-05T05:09:00.779Z,17.4
2022-08-05T05:10:02.063Z,17.4
2022-08-05T05:11:01.513Z,17.4
2022-08-05T05:12:03.021Z,17.4
2022-08-05T05:13:01.775Z,17.3
2022-08-05T05:14:01.284Z,17.5
2022-08-05T05:15:03.503Z,17.4
2022-08-05T05:16:02.068Z,17.5
2022-08-05T05:17:00.857Z,17.4
2022-08-05T05:18:01.549Z,17.4
2022-08-05T05:19:17.972Z,17.4
2022-08-05T05:20:01.209Z,17.4
2022-08-05T05:21:00.752Z,17.4
2022-08-05T05:22:03.714Z,17.4
2022-08-05T05:23:04.229Z,17.3
2022-08-05T05:24:02.593Z,17.4
2022-08-05T05:25:01.371Z,17.4
2022-08-05T05:26:01.542Z,17.4
2022-08-05T05:27:00.809Z,17.3
2022-08-05T05:28:01.034Z,17.3
2022-08-05T05:29:02.255Z,17.3
2022-08-05T05:30:03.742Z,17.4
2022-08-05T05:31:01.617Z,17.3
2022-08-05T05:32:01.158Z,17.4
2022-08-05T05:33:03.617Z,17.5
2022-08-05T05:34:01.820Z,17.5
2022-08-05T05:35:00.918Z,17.4
2022-08-05T05:36:01.460Z,17.4
2022-08-05T05:37:01.047Z,17.5
2022-08-05T05:38:02.393Z,17.6
2022-08-05T05:39:03.683Z,17.6
2022-08-05T05:40:01.618Z,17.6
2022-08-05T05:41:00.954Z,17.6
2022-08-05T05:42:01.329Z,17.6
2022-08-05T05:43:01.974Z,17.6
2022-08-05T05:44:00.892Z,17.6
2022-08-05T05:45:01.498Z,17.7
2022-08-05T05:46:01.675Z,17.7
2022-08-05T05:47:02.256Z,17.7
2022-08-05T05:48:05.872Z,17.6
2022-08-05T05:49:00.926Z,17.6
2022-08-05T05:50:04.107Z,17.6
2022-08-05T05:51:05.140Z,17.6
2022-08-05T05:52:01.570Z,17.7
2022-08-05T05:53:01.089Z,17.7
2022-08-05T05:54:01.602Z,17.7
2022-08-05T05:55:01.181Z,17.6
2022-08-05T05:56:03.229Z,17.6
2022-08-05T05:57:00.917Z,17.7
2022-08-05T05:58:01.809Z,17.8
2022-08-05T05:59:03.003Z,17.7
2022-08-05T06:00:01.135Z,17.6
2022-08-05T06:01:02.635Z,17.7
2022-08-05T06:02:01.255Z,17.7
2022-08-05T06:03:00.837Z,17.6
2022-08-05T06:04:03.775Z,17.6
2022-08-05T06:05:01.224Z,17.5
2022-08-05T06:06:01.552Z,17.5
2022-08-05T06:07:01.522Z,17.4
2022-08-05T06:08:01.462Z,17.5
2022-08-05T06:09:00.748Z,17.5
2022-08-05T06:10:03.447Z,17.5
2022-08-05T06:11:00.917Z,17.5
2022-08-05T06:12:02.626Z,17.5
2022-08-05T06:13:01.533Z,17.5
2022-08-05T06:14:01.117Z,17.4
2022-08-05T06:15:00.715Z,17.4
2022-08-05T06:16:27.780Z,17.5
2022-08-05T06:17:01.848Z,17.4
2022-08-05T06:18:00.869Z,17.4
2022-08-05T06:19:01.919Z,17.4
2022-08-05T06:20:01.012Z,17.4
2022-08-05T06:21:01.343Z,17.4
2022-08-05T06:22:00.924Z,17.4
2022-08-05T06:23:01.504Z,17.3
2022-08-05T06:24:01.660Z,17.2
2022-08-05T06:25:01.310Z,17.4
2022-08-05T06:26:13.160Z,17.3
2022-08-05T06:27:01.435Z,17.3
2022-08-05T06:28:09.783Z,17.4
2022-08-05T06:29:03.249Z,17.4
2022-08-05T06:30:04.058Z,17.4
2022-08-05T06:31:01.274Z,17.4
2022-08-05T06:32:00.816Z,17.5
2022-08-05T06:33:00.879Z,17.5
2022-08-05T06:34:06.662Z,17.4
2022-08-05T06:35:05.738Z,17.3
2022-08-05T06:36:04.303Z,17.3
2022-08-05T06:37:01.125Z,17.3
2022-08-05T06:38:04.363Z,17.3
2022-08-05T06:39:01.246Z,17.2
2022-08-05T06:40:00.723Z,17.3
2022-08-05T06:41:01.167Z,17.3
2022-08-05T06:42:00.800Z,17.4
2022-08-05T06:43:01.341Z,17.3
2022-08-05T06:44:00.951Z,17.3
2022-08-05T06:45:05.381Z,17.3
2022-08-05T06:46:04.376Z,17.3
2022-08-05T06:47:02.201Z,17.3
2022-08-05T06:48:12.388Z,17.3
2022-08-05T06:49:02.064Z,17.2
2022-08-05T06:50:05.195Z,17.2
2022-08-05T06:51:01.580Z,17.1
2022-08-05T06:52:01.141Z,17.1
2022-08-05T06:53:04.099Z,17
2022-08-05T06:54:01.812Z,17
2022-08-05T06:55:00.762Z,16.9
2022-08-05T06:56:01.084Z,16.8
2022-08-05T06:57:13.998Z,16.8
2022-08-05T06:58:03.602Z,16.9
2022-08-05T06:59:00.786Z,16.8
2022-08-05T07:00:01.368Z,16.9
2022-08-05T07:01:01.055Z,16.9
2022-08-05T07:02:01.542Z,16.8
2022-08-05T07:03:00.911Z,16.9
2022-08-05T07:04:01.518Z,16.9
2022-08-05T07:05:00.919Z,16.8
2022-08-05T07:06:01.499Z,16.9
2022-08-05T07:07:01.039Z,16.8
2022-08-05T07:08:01.648Z,16.9
2022-08-05T07:09:03.911Z,16.9
2022-08-05T07:10:03.510Z,16.9
2022-08-05T07:11:01.168Z,16.9
2022-08-05T07:12:01.070Z,16.9
2022-08-05T07:13:01.650Z,16.8
2022-08-05T07:14:01.265Z,16.8
2022-08-05T07:15:00.876Z,16.9
2022-08-05T07:16:04.705Z,16.9
2022-08-05T07:17:57.779Z,16.9
2022-08-05T07:18:07.359Z,16.9
2022-08-05T07:19:01.076Z,17
2022-08-05T07:21:04.605Z,17
2022-08-05T07:22:01.555Z,17
2022-08-05T07:23:01.320Z,17
2022-08-05T07:24:01.204Z,17
2022-08-05T07:25:09.671Z,16.9
2022-08-05T07:26:01.562Z,16.9
2022-08-05T07:27:02.832Z,17
2022-08-05T07:28:05.476Z,17
2022-08-05T07:29:01.049Z,17
2022-08-05T07:30:22.667Z,16.9
2022-08-05T07:31:01.194Z,16.9
2022-08-05T07:32:01.089Z,16.9
2022-08-05T07:33:01.629Z,16.9
2022-08-05T07:34:01.174Z,16.8
2022-08-05T07:35:39.795Z,16.9
2022-08-05T07:36:02.863Z,16.9
2022-08-05T07:37:00.754Z,16.9
2022-08-05T07:38:01.483Z,17
2022-08-05T07:39:01.113Z,16.9
2022-08-05T07:40:04.824Z,16.9
2022-08-05T07:41:04.705Z,17
2022-08-05T07:42:09.770Z,17
2022-08-05T07:43:02.292Z,17
2022-08-05T07:44:00.794Z,17
2022-08-05T07:45:01.375Z,17.1
2022-08-05T07:46:00.978Z,17.2
2022-08-05T07:47:01.152Z,17.2
2022-08-05T07:48:01.691Z,17.2
2022-08-05T07:49:05.331Z,17.1
2022-08-05T07:50:01.249Z,17.2
2022-08-05T07:51:00.810Z,17.1
2022-08-05T07:52:01.409Z,17.2
2022-08-05T07:53:00.992Z,17.3
2022-08-05T07:54:01.868Z,17.1
2022-08-05T07:55:01.219Z,17.2
2022-08-05T07:56:05.068Z,17.2
2022-08-05T07:57:15.078Z,17.3
2022-08-05T07:58:02.945Z,17.2
2022-08-05T07:59:01.432Z,17.3
2022-08-05T08:00:01.241Z,17.3
2022-08-05T08:01:00.853Z,17.3
2022-08-05T08:02:01.381Z,17.3
2022-08-05T08:03:14.465Z,17.3
2022-08-05T08:04:01.230Z,17.3
2022-08-05T08:05:01.176Z,17.3
2022-08-05T08:06:00.741Z,17.3
2022-08-05T08:07:01.333Z,17.3
2022-08-05T08:08:00.893Z,17.3
2022-08-05T08:09:01.474Z,17.2
2022-08-05T08:10:01.059Z,17.3
2022-08-05T08:11:01.635Z,17.3
2022-08-05T08:12:06.360Z,17.3
2022-08-05T08:13:00.817Z,17.2
2022-08-05T08:14:01.374Z,17.1
2022-08-05T08:15:02.046Z,17.1
2022-08-05T08:16:34.028Z,17
2022-08-05T08:17:00.742Z,17.1
2022-08-05T08:18:01.937Z,17
2022-08-05T08:19:01.099Z,16.9
2022-08-05T08:20:23.212Z,17
2022-08-05T08:21:03.306Z,16.9
2022-08-05T08:22:00.860Z,16.9
2022-08-05T08:23:03.069Z,16.9
2022-08-05T08:24:04.843Z,17
2022-08-05T08:25:03.001Z,16.9
2022-08-05T08:26:02.511Z,16.9
2022-08-05T08:27:01.471Z,17
2022-08-05T08:28:01.009Z,17
2022-08-05T08:29:02.553Z,16.9
2022-08-05T08:30:04.729Z,16.8
2022-08-05T08:31:01.707Z,16.9
2022-08-05T08:32:01.243Z,17
2022-08-05T08:33:02.828Z,17
2022-08-05T08:34:01.088Z,17
2022-08-05T08:35:01.686Z,17
2022-08-05T08:36:18.705Z,17
2022-08-05T08:37:03.186Z,17
2022-08-05T08:38:01.451Z,17.1
2022-08-05T08:39:01.575Z,17.1
2022-08-05T08:40:01.379Z,17
2022-08-05T08:41:00.862Z,17
2022-08-05T08:42:02.127Z,16.9
2022-08-05T08:43:21.175Z,16.9
2022-08-05T08:45:17.505Z,16.9
2022-08-05T08:45:21.574Z,17
2022-08-05T08:46:01.428Z,16.8
2022-08-05T08:47:01.006Z,16.8
2022-08-05T08:48:06.479Z,16.9
2022-08-05T08:50:05.499Z,16.8
2022-08-05T08:50:08.021Z,16.8
2022-08-05T08:51:04.258Z,16.9
2022-08-05T08:52:04.553Z,16.9
2022-08-05T08:53:01.297Z,17
2022-08-05T08:54:00.769Z,16.9
2022-08-05T08:55:01.368Z,16.9
2022-08-05T08:56:02.311Z,16.9
2022-08-05T08:57:01.487Z,16.8
2022-08-05T08:58:01.075Z,16.9
2022-08-05T08:59:01.659Z,16.9
2022-08-05T09:00:01.218Z,16.8
2022-08-05T09:01:00.817Z,16.9
2022-08-05T09:02:01.422Z,16.9
2022-08-05T09:03:01.025Z,17
2022-08-05T09:04:01.577Z,17
2022-08-05T09:05:17.060Z,16.9
2022-08-05T09:06:07.483Z,16.9
2022-08-05T09:07:01.254Z,17
2022-08-05T09:08:00.836Z,17
2022-08-05T09:09:01.696Z,17.1
2022-08-05T09:10:01.060Z,17.2
2022-08-05T09:11:01.484Z,17.1
2022-08-05T09:12:12.401Z,17.2
2022-08-05T09:13:04.767Z,17.3
2022-08-05T09:14:09.873Z,17.4
2022-08-05T09:15:04.715Z,17.5
2022-08-05T09:16:01.479Z,17.4
2022-08-05T09:17:01.037Z,17.5
2022-08-05T09:18:01.617Z,17.7
2022-08-05T09:19:01.431Z,17.6
2022-08-05T09:20:02.114Z,17.6
2022-08-05T09:21:01.530Z,17.5
2022-08-05T09:22:18.171Z,17.5
2022-08-05T09:23:05.006Z,17.5
2022-08-05T09:24:02.491Z,17.5
2022-08-05T09:25:01.190Z,17.5
2022-08-05T09:26:05.983Z,17.5
2022-08-05T09:27:01.010Z,17.5
2022-08-05T09:28:03.622Z,17.7
2022-08-05T09:29:01.683Z,17.6
2022-08-05T09:30:06.137Z,17.7
2022-08-05T09:31:01.223Z,17.8
2022-08-05T09:32:40.537Z,17.8
2022-08-05T09:33:01.300Z,17.8
2022-08-05T09:34:00.802Z,17.8
2022-08-05T09:35:00.847Z,17.8
2022-08-05T09:36:04.813Z,17.8
2022-08-05T09:37:00.749Z,18
2022-08-05T09:38:13.125Z,18
2022-08-05T09:39:01.238Z,18.2
2022-08-05T09:40:01.085Z,18.3
2022-08-05T09:41:01.481Z,18.2
2022-08-05T09:42:01.020Z,18.1
2022-08-05T09:43:01.560Z,17.9
2022-08-05T09:44:01.508Z,17.8
2022-08-05T09:45:03.537Z,17.8
2022-08-05T09:46:05.668Z,17.9
2022-08-05T09:47:01.051Z,17.8
2022-08-05T09:48:01.635Z,17.7
2022-08-05T09:49:07.438Z,17.7
2022-08-05T09:50:02.814Z,17.8
2022-08-05T09:51:01.357Z,17.8
2022-08-05T09:52:00.968Z,17.6
2022-08-05T09:53:01.523Z,17.5
2022-08-05T09:54:01.192Z,17.5
2022-08-05T09:55:06.532Z,17.4
2022-08-05T09:56:04.071Z,17.4
2022-08-05T09:57:01.127Z,17.5
2022-08-05T09:58:01.576Z,17.4
2022-08-05T09:59:01.184Z,17.3
2022-08-05T10:00:04.811Z,17.4
2022-08-05T10:01:01.267Z,17.4
2022-08-05T10:02:00.868Z,17.4
2022-08-05T10:03:01.673Z,17.5
2022-08-05T10:04:01.136Z,17.4
2022-08-05T10:05:01.674Z,17.3
2022-08-05T10:06:04.750Z,17.3
2022-08-05T10:07:01.581Z,17.3
2022-08-05T10:08:10.544Z,17.4
2022-08-05T10:09:01.229Z,17.4
2022-08-05T10:10:04.529Z,17.4
2022-08-05T10:11:01.156Z,17.4
2022-08-05T10:12:03.764Z,17.4
2022-08-05T10:13:01.722Z,17.5
2022-08-05T10:14:01.259Z,17.5
2022-08-05T10:15:01.283Z,17.6
2022-08-05T10:16:01.080Z,17.6
2022-08-05T10:17:01.672Z,17.7
2022-08-05T10:18:01.228Z,17.7
2022-08-05T10:19:01.220Z,17.8
2022-08-05T10:20:03.441Z,17.8
2022-08-05T10:21:01.730Z,17.8
2022-08-05T10:22:00.832Z,17.7
2022-08-05T10:23:01.427Z,17.9
2022-08-05T10:24:02.442Z,18
2022-08-05T10:25:01.547Z,18.1
2022-08-05T10:26:01.130Z,18.1
2022-08-05T10:27:01.760Z,18.2
2022-08-05T10:28:09.872Z,18.3
2022-08-05T10:29:01.584Z,18.3
2022-08-05T10:30:07.377Z,18.4
2022-08-05T10:32:49.793Z,18.4
2022-08-05T10:32:50.459Z,18.4
2022-08-05T10:33:02.375Z,18.5
2022-08-05T10:34:01.366Z,18.6
2022-08-05T10:35:01.580Z,18.5
2022-08-05T10:36:00.797Z,18.5
2022-08-05T10:37:01.374Z,18.6
2022-08-05T10:38:01.078Z,18.8
2022-08-05T10:39:01.602Z,18.8
2022-08-05T10:40:03.435Z,18.7
2022-08-05T10:41:01.675Z,18.5
2022-08-05T10:42:01.471Z,18.7
2022-08-05T10:43:01.098Z,19
2022-08-05T10:44:01.692Z,19.1
2022-08-05T10:45:01.231Z,19.1
2022-08-05T10:46:06.513Z,19.3
2022-08-05T10:47:01.349Z,19.3
2022-08-05T10:48:30.473Z,19.3
2022-08-05T10:49:06.445Z,19.4
2022-08-05T10:50:21.033Z,19.6
2022-08-05T10:51:01.530Z,19.6
2022-08-05T10:52:02.467Z,19.6
2022-08-05T10:53:01.694Z,19.6
2022-08-05T10:54:01.726Z,19.7
2022-08-05T10:55:00.907Z,19.6
2022-08-05T10:56:04.030Z,19.7
2022-08-05T10:57:01.024Z,19.8
2022-08-05T10:58:01.602Z,20.2
2022-08-05T10:59:07.043Z,20.2
2022-08-05T11:00:01.726Z,20.3
2022-08-05T11:01:02.951Z,20.2
2022-08-05T11:02:05.303Z,20.5
2022-08-05T11:03:22.867Z,20.5
2022-08-05T11:04:00.906Z,20.3
2022-08-05T11:05:01.531Z,20.5
2022-08-05T11:06:01.127Z,20.6
2022-08-05T11:07:01.666Z,20.7
2022-08-05T11:08:09.322Z,20.7
2022-08-05T11:09:00.782Z,20.6
2022-08-05T11:10:03.896Z,20.6
2022-08-05T11:11:06.065Z,20.4
2022-08-05T11:12:01.304Z,20.7
2022-08-05T11:13:01.215Z,20.6
2022-08-05T11:14:00.983Z,20.6
2022-08-05T11:15:12.050Z,20.7
2022-08-05T11:16:02.072Z,20.6
2022-08-05T11:17:10.749Z,20.6
2022-08-05T11:18:03.860Z,20.3
2022-08-05T11:19:00.820Z,20.4
2022-08-05T11:20:09.529Z,20.5
2022-08-05T11:21:00.897Z,20.5
2022-08-05T11:22:01.563Z,20.7
2022-08-05T11:23:05.783Z,20.9
2022-08-05T11:24:03.607Z,21.2
2022-08-05T11:25:01.651Z,21.4
2022-08-05T11:26:03.931Z,21.5
2022-08-05T11:27:01.047Z,21.7
2022-08-05T11:28:01.217Z,21.8
2022-08-05T11:29:07.088Z,22.1
2022-08-05T11:30:01.297Z,22.2
2022-08-05T11:31:00.876Z,22
2022-08-05T11:32:01.457Z,21.8
2022-08-05T11:33:01.615Z,21.9
2022-08-05T11:34:01.154Z,21.8
2022-08-05T11:35:01.695Z,21.8
2022-08-05T11:36:04.530Z,22
2022-08-05T11:37:00.815Z,22.1
2022-08-05T11:38:27.250Z,21.9
2022-08-05T11:39:00.952Z,21.7
2022-08-05T11:40:03.342Z,21.8
2022-08-05T11:41:03.814Z,21.4
2022-08-05T11:42:04.640Z,21.4
2022-08-05T11:43:01.247Z,21.6
2022-08-05T11:44:05.347Z,21.7
2022-08-05T11:45:01.090Z,21.9
2022-08-05T11:46:15.712Z,21.9
2022-08-05T11:47:10.075Z,21.9
2022-08-05T11:48:00.968Z,21.8
2022-08-05T11:49:01.609Z,21.7
2022-08-05T11:50:01.623Z,21.8
2022-08-05T11:51:01.306Z,21.9
2022-08-05T11:52:00.886Z,21.8
2022-08-05T11:53:01.466Z,21.7
2022-08-05T11:54:01.022Z,21.6
2022-08-05T11:55:07.250Z,21.3
2022-08-05T11:56:01.542Z,21.1
2022-08-05T11:57:01.236Z,21
2022-08-05T11:58:09.049Z,21.2
2022-08-05T11:59:01.197Z,21.3
2022-08-05T12:00:01.353Z,21.3
2022-08-05T12:01:01.053Z,21.5
2022-08-05T12:02:01.590Z,21.3
2022-08-05T12:03:01.176Z,21.1
2022-08-05T12:04:01.275Z,21.4
2022-08-05T12:05:00.917Z,21.8
2022-08-05T12:06:01.528Z,22
2022-08-05T12:07:01.166Z,22.1
2022-08-05T12:08:02.951Z,21.9
2022-08-05T12:09:00.958Z,21.8
2022-08-05T12:10:06.011Z,22
2022-08-05T12:11:04.085Z,22
2022-08-05T12:12:00.788Z,22.2
2022-08-05T12:13:01.168Z,22.1
2022-08-05T12:14:03.953Z,22.1
2022-08-05T12:15:01.033Z,22.2
2022-08-05T12:16:01.592Z,22.2
2022-08-05T12:17:01.539Z,22.2
2022-08-05T12:18:03.526Z,22
2022-08-05T12:19:01.320Z,21.8
2022-08-05T12:20:16.581Z,21.7
2022-08-05T12:21:01.561Z,21.8
2022-08-05T12:22:01.194Z,21.8
2022-08-05T12:23:00.855Z,21.7
2022-08-05T12:24:03.319Z,21.7
2022-08-05T12:25:00.963Z,21.8
2022-08-05T12:26:01.545Z,21.8
2022-08-05T12:27:09.586Z,21.9
2022-08-05T12:28:02.430Z,21.8
2022-08-05T12:29:01.333Z,21.9
2022-08-05T12:30:01.022Z,22
2022-08-05T12:31:02.125Z,22.2
2022-08-05T12:32:01.900Z,22.4
2022-08-05T12:33:07.059Z,22.5
2022-08-05T12:34:01.499Z,22.5
2022-08-05T12:35:04.008Z,22.5
2022-08-05T12:36:01.254Z,22.5
2022-08-05T12:37:00.927Z,22.4
2022-08-05T12:38:01.472Z,22.4
2022-08-05T12:39:01.624Z,22.1
2022-08-05T12:40:03.406Z,22.3
2022-08-05T12:41:01.726Z,22.2
2022-08-05T12:42:00.980Z,22.2
2022-08-05T12:43:01.565Z,22.4
2022-08-05T12:44:01.152Z,22.8
2022-08-05T12:45:01.007Z,23.1
2022-08-05T12:46:01.320Z,23.3
2022-08-05T12:47:01.734Z,23.4
2022-08-05T12:48:17.839Z,23.2
2022-08-05T12:49:01.105Z,23.2
2022-08-05T12:50:01.922Z,23
2022-08-05T12:51:01.187Z,23.1
2022-08-05T12:52:11.301Z,23.1
2022-08-05T12:53:01.326Z,23.2
2022-08-05T12:54:01.012Z,23
2022-08-05T12:55:01.589Z,22.9
2022-08-05T12:56:01.760Z,22.4
2022-08-05T12:57:01.368Z,22.2
2022-08-05T12:58:39.328Z,21.9
2022-08-05T12:59:03.220Z,21.8
2022-08-05T13:01:59.294Z,21.6
2022-08-05T13:01:59.346Z,21.3
2022-08-05T13:02:07.256Z,21.1
2022-08-05T13:03:01.761Z,21
2022-08-05T13:04:01.607Z,20.9
2022-08-05T13:05:01.177Z,21
2022-08-05T13:06:01.422Z,21.1
2022-08-05T13:07:00.970Z,21.2
2022-08-05T13:08:01.812Z,21.3
2022-08-05T13:09:01.247Z,21.4
2022-08-05T13:10:01.064Z,21.3
2022-08-05T13:11:01.392Z,21.4
2022-08-05T13:12:02.442Z,21.3
2022-08-05T13:13:02.574Z,21.5
2022-08-05T13:14:04.503Z,21.6
2022-08-05T13:15:05.220Z,21.6
2022-08-05T13:16:01.445Z,21.8
2022-08-05T13:17:01.614Z,21.8
2022-08-05T13:18:01.154Z,21.9
2022-08-05T13:19:01.757Z,22.1
2022-08-05T13:20:00.997Z,22.3
2022-08-05T13:21:01.471Z,22.3
2022-08-05T13:22:01.012Z,22.3
2022-08-05T13:23:01.552Z,22.2
2022-08-05T13:24:01.123Z,22.4
2022-08-05T13:25:05.396Z,22.4
2022-08-05T13:26:01.499Z,22.7